Time;durP1;ratioP1;P1;durP2;ratioP2;P2;SDS_P1;SDS_P2;PMS_P1;PMS_P2;Temp;Humidity;BMP_temperature;BMP_pressure;BME280_temperature;BME280_humidity;BME280_pressure;Samples;Min_cycle;Max_cycle;Signal;HPM_P1;HPM_P2
2023/09/21 00:01:03;;;;;;;2.28;0.63;;;18.10;99.90;;;;;;5040446;28;20057;-69
2023/09/21 00:03:35;;;;;;;2.55;0.50;;;18.00;99.90;;;;;;5040619;28;20025;-70
2023/09/21 00:06:01;;;;;;;3.67;1.00;;;18.00;99.90;;;;;;5040389;28;20498;-69
2023/09/21 00:08:27;;;;;;;3.78;0.50;;;18.00;99.90;;;;;;5040834;28;20452;-69
2023/09/21 00:10:54;;;;;;;2.50;0.70;;;18.00;99.90;;;;;;5040216;28;20053;-69
2023/09/21 00:13:26;;;;;;;3.22;0.63;;;18.00;99.90;;;;;;5040423;28;20029;-70
2023/09/21 00:15:55;;;;;;;3.70;0.60;;;17.90;99.90;;;;;;5040182;28;20022;-69
2023/09/21 00:18:21;;;;;;;1.55;0.47;;;17.90;99.90;;;;;;5040536;28;20053;-68
2023/09/21 00:20:56;;;;;;;2.28;0.50;;;18.00;99.90;;;;;;5040149;28;20553;-69
2023/09/21 00:23:26;;;;;;;2.60;0.60;;;18.00;99.90;;;;;;5038932;28;20389;-68
2023/09/21 00:25:58;;;;;;;3.45;0.60;;;18.00;99.90;;;;;;5039996;28;20025;-68
2023/09/21 00:28:28;;;;;;;1.98;0.50;;;18.00;99.90;;;;;;5038782;28;20033;-68
2023/09/21 00:31:02;;;;;;;3.50;0.60;;;18.00;99.90;;;;;;5040275;28;20116;-69
2023/09/21 00:33:29;;;;;;;2.60;0.40;;;18.00;99.90;;;;;;5039701;28;20021;-69
2023/09/21 00:35:58;;;;;;;1.92;0.40;;;17.90;99.90;;;;;;5038489;28;20025;-68
2023/09/21 00:38:25;;;;;;;3.30;0.70;;;17.90;99.90;;;;;;5039410;28;20504;-69
2023/09/21 00:40:56;;;;;;;3.45;0.70;;;17.90;99.90;;;;;;5039759;28;20037;-69
2023/09/21 00:43:25;;;;;;;2.80;0.60;;;17.90;99.90;;;;;;5039731;28;20474;-69
2023/09/21 00:45:57;;;;;;;2.90;0.70;;;17.90;99.90;;;;;;5038561;28;20037;-68
2023/09/21 00:48:26;;;;;;;4.25;0.60;;;17.90;99.90;;;;;;5039962;28;20026;-69
2023/09/21 00:50:54;;;;;;;3.30;0.50;;;17.90;99.90;;;;;;5039778;28;20064;-68
2023/09/21 00:53:22;;;;;;;2.85;0.70;;;17.90;99.90;;;;;;5039519;28;20425;-69
2023/09/21 00:55:53;;;;;;;2.58;0.68;;;17.90;99.90;;;;;;5042145;28;20083;-68
2023/09/21 00:58:22;;;;;;;3.15;0.60;;;17.80;99.90;;;;;;5039585;28;20103;-68
2023/09/21 01:00:49;;;;;;;1.35;0.50;;;17.80;99.90;;;;;;5039461;28;20033;-69
2023/09/21 01:03:15;;;;;;;3.70;0.50;;;17.80;99.90;;;;;;5039494;28;20029;-69
2023/09/21 01:05:44;;;;;;;1.35;0.40;;;17.80;99.90;;;;;;5039427;28;20033;-68
2023/09/21 01:08:11;;;;;;;2.22;0.52;;;17.80;99.90;;;;;;5039600;28;20040;-68
2023/09/21 01:10:42;;;;;;;2.58;0.45;;;17.80;99.90;;;;;;5037967;28;20482;-68
2023/09/21 01:13:08;;;;;;;4.15;0.60;;;17.70;99.90;;;;;;5039634;28;20565;-68
2023/09/21 01:15:34;;;;;;;3.40;0.70;;;17.70;99.90;;;;;;5038982;28;20029;-69
2023/09/21 01:18:02;;;;;;;5.05;0.73;;;17.50;99.90;;;;;;5039384;28;20495;-69
2023/09/21 01:20:30;;;;;;;19.83;1.45;;;16.50;99.90;;;;;;5039164;28;20036;-68
2023/09/21 01:23:17;;;;;;;8.73;0.60;;;15.90;99.90;;;;;;5039444;28;20601;-69
2023/09/21 01:25:44;;;;;;;1.63;0.57;;;15.40;99.90;;;;;;5038929;28;20029;-70
2023/09/21 01:28:13;;;;;;;8.52;0.50;;;15.10;99.90;;;;;;5039118;28;20071;-70
2023/09/21 01:30:39;;;;;;;10.05;0.45;;;14.80;99.90;;;;;;5038681;28;20021;-70
2023/09/21 01:33:09;;;;;;;1.13;0.20;;;14.80;99.90;;;;;;5037558;28;20167;-70
2023/09/21 01:35:40;;;;;;;0.30;0.10;;;14.90;99.90;;;;;;5039056;28;20059;-70
2023/09/21 01:38:06;;;;;;;2.33;0.30;;;14.80;99.90;;;;;;5038698;28;20021;-70
2023/09/21 01:40:36;;;;;;;1.35;0.20;;;14.70;99.90;;;;;;5038402;28;20033;-70
2023/09/21 01:43:06;;;;;;;2.33;0.20;;;14.70;99.90;;;;;;5038974;28;20053;-70
2023/09/21 01:45:32;;;;;;;1.55;0.20;;;14.70;99.90;;;;;;5038575;28;20033;-69
2023/09/21 01:47:59;;;;;;;0.55;0.20;;;14.90;99.90;;;;;;5037265;28;20024;-70
2023/09/21 01:50:25;;;;;;;0.77;0.25;;;14.90;99.90;;;;;;5038739;28;20482;-69
2023/09/21 01:52:51;;;;;;;0.75;0.20;;;14.80;99.90;;;;;;5037289;28;20030;-69
2023/09/21 01:55:16;;;;;;;0.57;0.28;;;14.80;99.90;;;;;;5040758;28;20030;-70
2023/09/21 01:57:43;;;;;;;0.68;0.20;;;14.80;99.90;;;;;;5037954;28;20050;-70
2023/09/21 02:00:21;;;;;;;0.60;0.30;;;14.70;99.90;;;;;;5038531;28;20037;-70
2023/09/21 02:02:47;;;;;;;1.25;0.30;;;14.60;99.90;;;;;;5038495;28;20375;-70
2023/09/21 02:05:13;;;;;;;0.52;0.20;;;14.50;99.90;;;;;;5037049;28;20072;-70
2023/09/21 02:07:41;;;;;;;1.67;0.30;;;14.40;99.90;;;;;;5038267;28;20072;-70
2023/09/21 02:10:11;;;;;;;1.38;0.40;;;14.30;99.90;;;;;;5038496;28;20064;-70
2023/09/21 02:12:38;;;;;;;1.20;0.50;;;14.30;99.90;;;;;;5038321;28;20045;-70
2023/09/21 02:15:12;;;;;;;1.77;0.50;;;14.10;99.90;;;;;;5038028;28;20033;-70
2023/09/21 02:17:41;;;;;;;1.48;0.30;;;14.10;99.90;;;;;;5036821;28;20459;-70
2023/09/21 02:20:16;;;;;;;2.38;0.45;;;;;;;;;;5038203;28;20049;-70
2023/09/21 02:22:46;;;;;;;1.17;0.38;;;;;;;;;;5038311;28;20060;-71
2023/09/21 02:25:13;;;;;;;1.15;0.40;;;;;;;;;;5017750;28;20026;-71
2023/09/21 02:27:40;;;;;;;1.05;0.40;;;;;;;;;;5037984;28;20156;-71
2023/09/21 02:30:13;;;;;;;1.35;0.35;;;;;;;;;;5036354;28;20030;-71
2023/09/21 02:32:42;;;;;;;0.55;0.32;;;;;;;;;;5036695;28;20018;-71
2023/09/21 02:35:13;;;;;;;1.08;0.57;;;;;;;;;;5037856;28;20037;-69
2023/09/21 02:37:39;;;;;;;1.45;0.40;;;;;;;;;;5037786;28;20029;-70
2023/09/21 02:40:14;;;;;;;3.88;0.50;;;;;;;;;;5037505;28;20044;-70
2023/09/21 02:42:40;;;;;;;1.55;0.40;;;;;;;;;;5036225;28;20032;-70
2023/09/21 02:45:09;;;;;;;1.38;0.40;;;;;;;;;;5037280;28;20033;-70
2023/09/21 02:47:36;;;;;;;1.88;0.40;;;;;;;;;;5036321;28;20024;-70
2023/09/21 02:50:14;;;;;;;1.38;0.40;;;;;;;;;;5037479;28;20052;-70
2023/09/21 02:52:43;;;;;;;1.48;0.38;;;;;;;;;;5037646;28;20407;-71
2023/09/21 02:55:09;;;;;;;2.15;0.65;;;;;;;;;;5038593;28;20029;-70
2023/09/21 02:57:35;;;;;;;1.27;0.60;;;14.30;99.90;;;;;;5035997;28;20049;-70
2023/09/21 03:00:08;;;;;;;0.88;0.30;;;14.20;99.90;;;;;;5037409;28;20085;-70
2023/09/21 03:02:34;;;;;;;2.03;0.50;;;14.20;99.90;;;;;;5037432;28;20100;-70
2023/09/21 03:05:10;;;;;;;2.78;0.32;;;14.20;99.90;;;;;;5037412;28;20049;-71
2023/09/21 03:07:38;;;;;;;0.80;0.38;;;14.30;99.90;;;;;;5037126;28;20079;-71
2023/09/21 03:10:09;;;;;;;1.33;0.43;;;14.30;99.90;;;;;;5036568;28;20395;-70
2023/09/21 03:12:36;;;;;;;1.35;0.45;;;14.30;99.90;;;;;;5037415;28;20045;-70
2023/09/21 03:15:06;;;;;;;2.78;0.50;;;14.30;99.90;;;;;;5036952;28;20524;-70
2023/09/21 03:17:33;;;;;;;2.95;0.50;;;14.30;99.90;;;;;;5037027;28;20033;-69
2023/09/21 03:20:00;;;;;;;2.15;0.60;;;14.20;99.90;;;;;;5037222;28;20025;-69
2023/09/21 03:22:26;;;;;;;0.93;0.30;;;14.20;99.90;;;;;;5037147;28;20021;-69
2023/09/21 03:24:55;;;;;;;2.60;0.60;;;14.20;99.90;;;;;;5036980;28;20560;-68
2023/09/21 03:27:23;;;;;;;0.73;0.30;;;14.20;99.90;;;;;;5036860;28;20027;-68
2023/09/21 03:29:49;;;;;;;2.42;0.50;;;14.20;99.90;;;;;;5037102;28;20466;-70
2023/09/21 03:32:15;;;;;;;1.42;0.40;;;14.20;99.90;;;;;;5036816;28;20108;-68
2023/09/21 03:34:40;;;;;;;1.67;0.60;;;14.10;99.90;;;;;;5037055;28;20064;-68
2023/09/21 03:37:06;;;;;;;2.42;0.70;;;14.10;99.90;;;;;;5036932;28;20053;-70
2023/09/21 03:39:32;;;;;;;0.90;0.50;;;14.00;99.90;;;;;;5035653;28;20026;-68
2023/09/21 03:41:58;;;;;;;0.80;0.40;;;14.00;99.90;;;;;;5036545;28;20032;-68
2023/09/21 03:44:24;;;;;;;1.10;0.40;;;14.10;99.90;;;;;;5035680;28;20441;-68
2023/09/21 03:46:49;;;;;;;1.23;0.55;;;14.10;99.90;;;;;;5035348;28;20443;-68
2023/09/21 03:49:15;;;;;;;1.60;0.50;;;14.10;99.90;;;;;;5036821;28;20024;-68
2023/09/21 03:51:41;;;;;;;2.17;0.60;;;14.10;99.90;;;;;;5035476;28;20026;-68
2023/09/21 03:54:07;;;;;;;1.73;0.70;;;14.10;99.90;;;;;;5037842;28;20026;-68
2023/09/21 03:56:36;;;;;;;1.52;0.55;;;14.10;99.90;;;;;;5037807;28;20056;-68
2023/09/21 03:59:02;;;;;;;1.48;0.50;;;14.20;99.90;;;;;;5036766;28;20021;-69
2023/09/21 04:01:29;;;;;;;1.55;0.52;;;14.20;99.90;;;;;;5036402;28;20074;-69
2023/09/21 04:03:55;;;;;;;1.75;0.60;;;14.10;99.90;;;;;;5036798;28;20505;-70
2023/09/21 04:06:21;;;;;;;0.88;0.45;;;14.20;99.90;;;;;;5036581;28;20029;-69
2023/09/21 04:08:46;;;;;;;1.88;0.57;;;14.20;99.90;;;;;;5036701;28;20026;-70
2023/09/21 04:11:12;;;;;;;2.05;0.60;;;14.20;99.90;;;;;;5036091;28;20036;-69
2023/09/21 04:13:38;;;;;;;1.27;0.35;;;14.20;99.90;;;;;;5036710;28;20033;-69
2023/09/21 04:16:05;;;;;;;1.55;0.50;;;14.20;99.90;;;;;;5036438;28;20026;-69
2023/09/21 04:18:31;;;;;;;1.15;0.50;;;14.10;99.90;;;;;;5036671;28;20071;-69
2023/09/21 04:20:57;;;;;;;2.42;0.50;;;14.10;99.90;;;;;;5038443;28;20100;-69
2023/09/21 04:23:24;;;;;;;1.13;0.30;;;14.10;99.90;;;;;;5040361;28;20100;-69
2023/09/21 04:25:50;;;;;;;1.45;0.40;;;14.10;99.90;;;;;;5039627;28;20021;-69
2023/09/21 04:28:15;;;;;;;2.08;0.40;;;14.10;99.90;;;;;;5040315;28;20021;-69
2023/09/21 04:30:41;;;;;;;2.42;0.70;;;14.10;99.90;;;;;;5040038;28;20029;-69
2023/09/21 04:33:07;;;;;;;1.25;0.43;;;14.10;99.90;;;;;;5040203;28;20022;-69
2023/09/21 04:35:32;;;;;;;1.95;0.50;;;14.10;99.90;;;;;;5038665;28;20032;-69
2023/09/21 04:37:58;;;;;;;1.80;0.50;;;14.00;99.90;;;;;;5040051;28;20028;-68
2023/09/21 04:40:26;;;;;;;2.65;0.50;;;14.10;99.90;;;;;;5039428;28;20088;-68
2023/09/21 04:42:51;;;;;;;1.67;0.60;;;14.10;99.90;;;;;;5039395;28;20026;-69
2023/09/21 04:45:18;;;;;;;1.20;0.50;;;14.10;99.90;;;;;;5039424;28;20033;-69
2023/09/21 04:47:47;;;;;;;4.25;0.63;;;14.10;99.90;;;;;;5039828;28;20022;-69
2023/09/21 04:50:14;;;;;;;1.83;0.60;;;14.10;99.90;;;;;;5026514;28;20017;-69
2023/09/21 04:52:39;;;;;;;1.38;0.55;;;14.10;99.90;;;;;;5038467;28;20018;-69
2023/09/21 04:55:08;;;;;;;1.73;0.50;;;14.00;99.90;;;;;;5040712;28;20064;-69
2023/09/21 04:57:37;;;;;;;1.33;0.43;;;14.10;99.90;;;;;;5039460;28;20055;-69
2023/09/21 05:00:07;;;;;;;1.23;0.50;;;14.10;99.90;;;;;;5038262;28;20026;-69
2023/09/21 05:02:32;;;;;;;2.00;0.82;;;14.10;99.90;;;;;;5035248;28;20048;-69
2023/09/21 05:04:59;;;;;;;1.48;0.50;;;14.10;99.90;;;;;;5039617;28;20088;-70
2023/09/21 05:07:25;;;;;;;0.82;0.40;;;14.00;99.90;;;;;;5039015;28;20013;-70
2023/09/21 05:09:51;;;;;;;3.03;0.52;;;14.00;99.90;;;;;;5039428;28;20026;-70
2023/09/21 05:12:18;;;;;;;2.08;0.60;;;14.00;99.90;;;;;;5038185;28;20025;-69
2023/09/21 05:14:45;;;;;;;1.42;0.50;;;14.00;99.90;;;;;;5038405;28;20036;-69
2023/09/21 05:17:11;;;;;;;1.10;0.60;;;13.90;99.90;;;;;;5038971;28;20083;-69
2023/09/21 05:19:37;;;;;;;1.95;0.60;;;13.90;99.90;;;;;;5038043;28;20037;-69
2023/09/21 05:22:04;;;;;;;2.08;0.60;;;13.90;99.90;;;;;;5038346;28;20025;-70
2023/09/21 05:24:30;;;;;;;1.52;0.70;;;13.90;99.90;;;;;;5040636;28;20029;-70
2023/09/21 05:26:55;;;;;;;2.13;0.82;;;13.90;99.90;;;;;;5038473;28;20068;-70
2023/09/21 05:29:22;;;;;;;1.30;0.52;;;13.90;99.90;;;;;;5039105;28;20037;-70
2023/09/21 05:31:49;;;;;;;1.30;0.60;;;13.90;99.90;;;;;;5035691;28;20017;-69
2023/09/21 05:34:16;;;;;;;2.05;0.50;;;13.90;99.90;;;;;;5038107;28;20032;-69
2023/09/21 05:36:44;;;;;;;1.85;0.65;;;14.00;99.90;;;;;;5038167;28;20026;-69
2023/09/21 05:39:11;;;;;;;2.10;0.70;;;14.00;99.90;;;;;;5037655;28;20383;-69
2023/09/21 05:41:37;;;;;;;1.45;0.60;;;14.00;99.90;;;;;;5034984;28;20067;-70
2023/09/21 05:44:03;;;;;;;1.77;0.60;;;14.00;99.90;;;;;;5038414;28;20446;-69
2023/09/21 05:46:28;;;;;;;1.50;0.70;;;14.00;99.90;;;;;;5034664;28;20560;-69
2023/09/21 05:48:54;;;;;;;1.05;0.55;;;14.00;99.90;;;;;;5037405;28;20033;-68
2023/09/21 05:51:20;;;;;;;1.90;0.70;;;14.00;99.90;;;;;;5029206;28;20028;-70
2023/09/21 05:53:47;;;;;;;3.03;0.80;;;14.00;99.90;;;;;;5032022;28;20486;-70
2023/09/21 05:56:13;;;;;;;1.27;0.57;;;14.00;99.90;;;;;;5036881;28;20017;-70
2023/09/21 05:58:39;;;;;;;0.85;0.47;;;14.00;99.90;;;;;;5036999;28;20044;-70
2023/09/21 06:01:05;;;;;;;2.30;0.70;;;14.00;99.90;;;;;;5036147;28;20030;-70
2023/09/21 06:03:31;;;;;;;2.30;0.68;;;14.00;99.90;;;;;;5036186;28;20124;-70
2023/09/21 06:05:56;;;;;;;2.35;0.50;;;14.00;99.90;;;;;;5037549;28;20527;-70
2023/09/21 06:08:22;;;;;;;1.58;0.75;;;14.00;99.90;;;;;;5036791;28;20029;-70
2023/09/21 06:10:48;;;;;;;1.08;0.60;;;13.90;99.90;;;;;;5036529;28;20040;-70
2023/09/21 06:13:14;;;;;;;1.60;0.60;;;14.00;99.90;;;;;;5037577;28;20035;-70
2023/09/21 06:15:49;;;;;;;1.65;0.63;;;14.00;99.90;;;;;;5036320;28;20105;-70
2023/09/21 06:18:17;;;;;;;1.92;0.70;;;14.00;99.90;;;;;;5036310;28;20034;-70
2023/09/21 06:20:46;;;;;;;2.10;0.60;;;14.00;99.90;;;;;;5036602;28;20025;-70
2023/09/21 06:23:11;;;;;;;1.77;0.52;;;14.00;99.90;;;;;;5036106;28;20025;-69
2023/09/21 06:25:37;;;;;;;1.83;0.63;;;14.00;99.90;;;;;;5036733;28;20029;-70
2023/09/21 06:28:03;;;;;;;1.95;0.82;;;14.00;99.90;;;;;;5037139;28;20347;-71
2023/09/21 06:30:29;;;;;;;1.17;0.68;;;14.00;99.90;;;;;;5036561;28;20087;-71
2023/09/21 06:32:55;;;;;;;4.03;1.55;;;14.00;99.90;;;;;;5035686;28;20017;-70
2023/09/21 06:35:24;;;;;;;3.50;1.30;;;14.00;99.90;;;;;;5036107;28;20037;-71
2023/09/21 06:37:54;;;;;;;3.88;1.85;;;14.00;99.90;;;;;;5030042;28;20128;-71
2023/09/21 06:40:26;;;;;;;3.67;1.58;;;14.00;99.90;;;;;;5044059;28;20025;-70
2023/09/21 06:42:52;;;;;;;5.38;2.30;;;14.10;99.90;;;;;;5031338;28;20032;-70
2023/09/21 06:45:18;;;;;;;4.53;2.10;;;14.10;99.90;;;;;;5034985;28;20116;-69
2023/09/21 06:47:47;;;;;;;3.67;1.80;;;14.10;99.90;;;;;;5036479;28;20033;-69
2023/09/21 06:50:14;;;;;;;3.72;1.40;;;14.20;99.90;;;;;;5034675;28;20051;-69
2023/09/21 06:52:40;;;;;;;2.17;1.20;;;14.20;99.90;;;;;;5035670;28;20068;-69
2023/09/21 06:55:06;;;;;;;4.97;1.10;;;14.20;99.90;;;;;;5037638;28;20025;-69
2023/09/21 06:57:34;;;;;;;2.33;1.10;;;14.30;99.90;;;;;;5040565;28;20434;-69
2023/09/21 07:00:01;;;;;;;3.03;1.40;;;14.30;99.90;;;;;;5024518;28;20025;-69
2023/09/21 07:02:26;;;;;;;2.97;1.27;;;14.30;99.90;;;;;;5037358;28;20018;-70
2023/09/21 07:04:53;;;;;;;3.83;1.30;;;14.40;99.90;;;;;;5036125;28;20081;-70
2023/09/21 07:07:19;;;;;;;2.42;1.00;;;14.30;99.90;;;;;;5036387;28;20083;-69
2023/09/21 07:09:47;;;;;;;2.78;1.35;;;14.40;99.90;;;;;;5037299;28;20129;-70
2023/09/21 07:12:14;;;;;;;2.40;1.30;;;14.40;99.90;;;;;;5036864;28;20029;-70
2023/09/21 07:14:40;;;;;;;6.40;2.67;;;14.40;99.90;;;;;;5036249;28;20075;-69
2023/09/21 07:17:07;;;;;;;6.20;3.22;;;14.50;99.90;;;;;;5034126;28;20026;-69
2023/09/21 07:19:34;;;;;;;3.92;1.90;;;14.50;99.90;;;;;;5037357;28;20040;-67
2023/09/21 07:22:00;;;;;;;4.18;2.13;;;14.50;99.90;;;;;;5037187;28;20025;-66
2023/09/21 07:24:26;;;;;;;3.30;1.70;;;14.50;99.90;;;;;;5036741;28;20021;-66
2023/09/21 07:26:53;;;;;;;3.30;1.48;;;14.50;99.90;;;;;;5034012;28;20022;-66
2023/09/21 07:29:20;;;;;;;3.28;1.50;;;14.50;99.90;;;;;;5035238;28;20053;-66
2023/09/21 07:31:45;;;;;;;3.17;1.27;;;14.50;99.90;;;;;;5034049;28;20034;-66
2023/09/21 07:34:11;;;;;;;4.00;1.20;;;14.60;99.90;;;;;;5036587;28;20029;-66
2023/09/21 07:36:38;;;;;;;5.22;2.38;;;14.60;99.90;;;;;;5037793;28;20071;-66
2023/09/21 07:39:08;;;;;;;4.13;1.70;;;14.60;99.90;;;;;;5043206;28;20026;-66
2023/09/21 07:41:34;;;;;;;3.13;1.60;;;14.60;99.90;;;;;;5038794;28;20046;-66
2023/09/21 07:44:00;;;;;;;3.83;1.25;;;14.60;99.90;;;;;;5036306;28;20052;-66
2023/09/21 07:46:26;;;;;;;4.25;1.30;;;14.60;99.90;;;;;;5036093;28;20497;-66
2023/09/21 07:48:51;;;;;;;5.32;1.25;;;14.60;99.90;;;;;;5034767;28;20021;-65
2023/09/21 07:51:19;;;;;;;2.33;1.35;;;14.50;99.90;;;;;;5036439;28;20056;-65
2023/09/21 07:53:45;;;;;;;3.40;1.30;;;14.50;99.90;;;;;;5035125;28;20045;-65
2023/09/21 07:56:12;;;;;;;2.25;1.20;;;14.50;99.90;;;;;;5040116;28;20079;-66
2023/09/21 07:58:38;;;;;;;2.22;1.05;;;14.50;99.90;;;;;;5038126;28;20046;-66
2023/09/21 08:01:04;;;;;;;2.75;0.90;;;14.40;99.90;;;;;;5038814;28;20464;-66
2023/09/21 08:03:30;;;;;;;4.75;1.27;;;14.40;99.90;;;;;;5039921;28;20512;-67
2023/09/21 08:05:56;;;;;;;3.58;1.10;;;14.30;99.90;;;;;;5038924;28;20037;-66
2023/09/21 08:08:25;;;;;;;6.53;1.20;;;14.30;99.90;;;;;;5038547;28;20418;-66
2023/09/21 08:10:51;;;;;;;4.55;1.13;;;14.20;99.90;;;;;;5040245;28;20081;-66
2023/09/21 08:13:17;;;;;;;2.00;1.10;;;14.20;99.90;;;;;;5040068;28;20022;-63
2023/09/21 08:15:43;;;;;;;2.88;1.20;;;14.20;99.90;;;;;;5039167;28;20447;-63
2023/09/21 08:18:10;;;;;;;4.07;1.30;;;14.20;99.90;;;;;;5039343;28;20112;-69
2023/09/21 08:20:39;;;;;;;2.22;0.90;;;14.30;99.90;;;;;;5029214;28;20037;-66
2023/09/21 08:23:08;;;;;;;3.03;1.35;;;14.30;99.90;;;;;;5041526;28;20033;-66
2023/09/21 08:25:35;;;;;;;1.98;1.20;;;14.50;99.90;;;;;;5042686;28;20104;-66
2023/09/21 08:28:03;;;;;;;5.00;1.40;;;14.60;99.90;;;;;;5047370;28;20043;-66
2023/09/21 08:30:30;;;;;;;2.63;1.17;;;14.60;99.90;;;;;;5038538;28;20033;-66
2023/09/21 08:32:56;;;;;;;3.03;1.25;;;14.70;99.90;;;;;;5038035;28;20031;-66
2023/09/21 08:35:22;;;;;;;4.00;1.30;;;14.70;99.90;;;;;;5039349;28;20025;-65
2023/09/21 08:37:50;;;;;;;3.80;1.30;;;14.80;99.90;;;;;;5046281;28;20029;-65
2023/09/21 08:40:16;;;;;;;4.15;1.10;;;14.90;99.90;;;;;;5036417;28;20513;-65
2023/09/21 08:42:44;;;;;;;5.95;1.10;;;14.90;99.90;;;;;;5035858;28;20079;-65
2023/09/21 08:45:11;;;;;;;6.10;1.50;;;14.90;99.90;;;;;;5036987;28;20034;-65
2023/09/21 08:47:40;;;;;;;4.50;1.10;;;14.90;99.90;;;;;;5037628;28;20053;-66
2023/09/21 08:50:07;;;;;;;5.72;1.20;;;14.80;99.90;;;;;;5037290;28;20067;-64
2023/09/21 08:52:34;;;;;;;3.67;0.98;;;14.80;99.90;;;;;;5035322;28;20024;-64
2023/09/21 08:55:00;;;;;;;5.55;1.30;;;14.70;99.90;;;;;;5040935;28;20033;-64
2023/09/21 08:57:26;;;;;;;3.40;1.23;;;14.90;99.90;;;;;;5038506;28;20046;-64
2023/09/21 08:59:57;;;;;;;3.08;1.00;;;14.90;99.90;;;;;;5038102;28;20044;-64
2023/09/21 09:02:23;;;;;;;2.25;1.38;;;14.90;99.90;;;;;;5038671;28;20029;-64
2023/09/21 09:04:51;;;;;;;3.03;0.90;;;14.80;99.90;;;;;;5038079;28;20061;-64
2023/09/21 09:07:18;;;;;;;3.95;1.40;;;14.80;99.90;;;;;;5037035;28;20398;-64
2023/09/21 09:09:46;;;;;;;3.55;1.05;;;14.80;99.90;;;;;;5039035;28;20017;-64
2023/09/21 09:12:24;;;;;;;3.47;1.30;;;14.90;99.90;;;;;;5046135;28;20036;-64
2023/09/21 09:14:54;;;;;;;4.03;1.50;;;14.90;99.90;;;;;;5042742;28;20026;-64
2023/09/21 09:17:20;;;;;;;2.45;1.10;;;14.90;99.90;;;;;;5039674;28;20021;-64
2023/09/21 09:19:50;;;;;;;4.13;1.40;;;15.00;99.90;;;;;;5038769;28;20026;-64
2023/09/21 09:22:16;;;;;;;2.63;1.20;;;15.10;99.90;;;;;;5039972;28;20033;-66
2023/09/21 09:24:44;;;;;;;3.60;1.38;;;15.30;99.90;;;;;;5037755;28;20493;-65
2023/09/21 09:27:09;;;;;;;2.88;1.20;;;15.40;99.90;;;;;;5039438;28;20025;-65
2023/09/21 09:29:53;;;;;;;3.28;1.30;;;15.50;99.90;;;;;;5039599;28;20379;-65
2023/09/21 09:32:19;;;;;;;3.80;1.30;;;15.70;99.90;;;;;;5039579;28;20049;-65
2023/09/21 09:34:48;;;;;;;4.22;1.13;;;15.80;99.90;;;;;;5038462;28;20029;-65
2023/09/21 09:37:15;;;;;;;2.65;1.10;;;15.80;99.90;;;;;;5034668;28;20482;-64
2023/09/21 09:39:44;;;;;;;1.65;1.10;;;15.90;99.90;;;;;;5045743;28;20112;-65
2023/09/21 09:42:13;;;;;;;4.35;1.35;;;15.90;99.90;;;;;;5035441;28;20059;-64
2023/09/21 09:44:44;;;;;;;2.15;1.15;;;15.90;99.90;;;;;;5036516;28;20053;-66
2023/09/21 09:47:11;;;;;;;4.50;1.55;;;15.80;99.90;;;;;;5035842;28;20052;-66
2023/09/21 09:49:39;;;;;;;4.57;1.48;;;15.80;99.90;;;;;;5038035;28;20032;-65
2023/09/21 09:52:06;;;;;;;4.80;1.38;;;15.70;99.90;;;;;;5038117;28;20033;-65
2023/09/21 09:54:32;;;;;;;4.30;1.08;;;15.70;99.90;;;;;;5037702;28;20493;-65
2023/09/21 09:57:01;;;;;;;4.90;1.00;;;15.60;99.90;;;;;;5038569;28;20053;-66
2023/09/21 09:59:28;;;;;;;5.07;1.15;;;15.60;99.90;;;;;;5033012;28;20026;-65
2023/09/21 10:01:55;;;;;;;6.10;1.55;;;15.60;99.90;;;;;;5037843;28;20043;-65
2023/09/21 10:04:21;;;;;;;5.32;0.93;;;15.70;99.90;;;;;;5037883;28;20481;-65
2023/09/21 10:06:48;;;;;;;2.58;0.85;;;15.70;99.90;;;;;;5037887;28;20067;-65
2023/09/21 10:09:14;;;;;;;3.83;1.00;;;15.70;99.90;;;;;;5037705;28;20029;-64
2023/09/21 10:11:44;;;;;;;3.38;1.00;;;15.70;99.90;;;;;;5037452;28;20088;-63
2023/09/21 10:14:16;;;;;;;2.97;1.00;;;15.70;99.90;;;;;;5041531;28;20040;-63
2023/09/21 10:16:49;;;;;;;4.72;0.88;;;15.70;99.90;;;;;;5041738;28;20029;-63
2023/09/21 10:19:26;;;;;;;2.47;0.75;;;15.70;99.90;;;;;;5043847;28;20029;-63
2023/09/21 10:22:03;;;;;;;3.28;1.00;;;15.80;99.90;;;;;;5038577;28;20040;-63
2023/09/21 10:24:30;;;;;;;2.78;1.00;;;15.90;99.90;;;;;;5043780;28;20029;-63
2023/09/21 10:27:04;;;;;;;4.07;0.88;;;16.00;99.90;;;;;;5041444;28;20491;-63
2023/09/21 10:29:36;;;;;;;2.50;0.80;;;16.10;99.90;;;;;;5047480;28;20426;-63
2023/09/21 10:32:06;;;;;;;3.92;0.85;;;16.10;99.90;;;;;;5043469;28;20052;-66
2023/09/21 10:34:32;;;;;;;2.38;0.90;;;16.20;99.90;;;;;;5046965;28;20075;-65
2023/09/21 10:37:06;;;;;;;3.47;1.15;;;16.20;99.90;;;;;;5042557;28;20094;-65
2023/09/21 10:39:32;;;;;;;3.25;0.93;;;16.20;99.90;;;;;;5044829;28;20049;-66
2023/09/21 10:42:04;;;;;;;1.98;0.90;;;16.20;99.90;;;;;;5045563;28;20076;-65
2023/09/21 10:45:00;;;;;;;4.50;1.00;;;16.30;99.90;;;;;;5045184;28;20021;-65
2023/09/21 10:47:28;;;;;;;4.80;1.02;;;16.50;99.90;;;;;;5044719;28;20457;-65
2023/09/21 10:49:59;;;;;;;4.03;1.10;;;16.70;99.90;;;;;;5046507;28;20043;-65
2023/09/21 10:52:27;;;;;;;4.15;1.50;;;16.70;99.90;;;;;;5044977;28;20022;-65
2023/09/21 10:54:55;;;;;;;4.18;1.17;;;16.90;99.90;;;;;;5045699;28;20013;-64
2023/09/21 10:57:28;;;;;;;3.80;1.10;;;17.00;99.90;;;;;;5047651;28;20052;-64
2023/09/21 10:59:57;;;;;;;5.80;1.80;;;17.30;99.90;;;;;;5035489;28;20108;-65
2023/09/21 11:02:23;;;;;;;5.32;1.20;;;17.50;99.90;;;;;;5037208;28;20439;-64
2023/09/21 11:04:52;;;;;;;5.00;1.40;;;17.60;99.90;;;;;;5036919;28;20108;-64
2023/09/21 11:07:19;;;;;;;4.00;1.30;;;17.70;99.90;;;;;;5036583;28;20113;-65
2023/09/21 11:09:44;;;;;;;4.07;1.20;;;17.70;99.90;;;;;;5036058;28;20033;-64
2023/09/21 11:12:14;;;;;;;4.10;1.52;;;17.50;99.90;;;;;;5036457;28;20068;-65
2023/09/21 11:14:44;;;;;;;5.35;2.05;;;17.70;99.90;;;;;;5034209;28;20033;-66
2023/09/21 11:17:11;;;;;;;3.85;1.40;;;17.80;99.90;;;;;;5034728;28;20112;-66
2023/09/21 11:19:38;;;;;;;4.20;1.33;;;17.90;99.90;;;;;;5036928;28;20022;-65
2023/09/21 11:22:05;;;;;;;3.00;1.25;;;18.00;99.90;;;;;;5036958;28;20030;-65
2023/09/21 11:24:33;;;;;;;4.50;1.00;;;18.00;99.90;;;;;;5037228;28;20117;-65
2023/09/21 11:26:59;;;;;;;3.45;0.90;;;17.80;99.90;;;;;;5036761;28;20028;-65
2023/09/21 11:29:26;;;;;;;3.15;0.70;;;17.80;99.90;;;;;;5036929;28;20428;-65
2023/09/21 11:31:54;;;;;;;1.73;0.85;;;17.90;99.90;;;;;;5036614;28;20029;-65
2023/09/21 11:34:20;;;;;;;3.63;0.80;;;17.80;99.90;;;;;;5037223;28;20029;-64
2023/09/21 11:36:45;;;;;;;3.22;1.10;;;17.50;99.90;;;;;;5036678;28;20017;-64
2023/09/21 11:39:12;;;;;;;4.03;0.88;;;17.30;99.90;;;;;;5037042;28;20026;-65
2023/09/21 11:41:39;;;;;;;3.50;0.80;;;17.10;99.90;;;;;;5035316;28;20040;-65
2023/09/21 11:44:06;;;;;;;2.78;0.63;;;16.90;99.90;;;;;;5037028;28;20478;-65
2023/09/21 11:46:32;;;;;;;2.10;1.02;;;16.80;99.90;;;;;;5036728;28;20490;-65
2023/09/21 11:48:58;;;;;;;2.05;0.60;;;16.50;99.90;;;;;;5036891;28;20096;-66
2023/09/21 11:51:28;;;;;;;3.05;0.50;;;15.70;99.90;;;;;;5036833;28;20029;-66
2023/09/21 11:53:58;;;;;;;2.88;0.70;;;14.70;99.90;;;;;;5037166;28;20026;-66
2023/09/21 11:56:26;;;;;;;2.00;0.47;;;14.40;99.90;;;;;;5038569;28;20104;-66
2023/09/21 11:58:58;;;;;;;2.13;0.60;;;14.40;99.90;;;;;;5036962;28;20029;-66
2023/09/21 12:01:28;;;;;;;0.95;0.35;;;14.60;99.90;;;;;;5036587;28;20390;-66
2023/09/21 12:03:56;;;;;;;1.15;0.50;;;15.00;99.90;;;;;;5035445;28;20402;-66
2023/09/21 12:06:25;;;;;;;2.83;0.60;;;15.10;99.90;;;;;;5036832;28;20014;-66
2023/09/21 12:08:51;;;;;;;1.38;0.43;;;15.20;99.90;;;;;;5036591;28;20106;-65
2023/09/21 12:11:17;;;;;;;1.95;0.50;;;15.40;99.90;;;;;;5036602;28;20041;-66
2023/09/21 12:13:42;;;;;;;1.48;0.50;;;15.70;99.90;;;;;;5036695;28;20025;-66
2023/09/21 12:16:08;;;;;;;0.75;0.30;;;15.90;99.90;;;;;;5036740;28;20037;-66
2023/09/21 12:18:33;;;;;;;2.38;0.50;;;16.00;99.90;;;;;;5036685;28;20390;-66
2023/09/21 12:21:00;;;;;;;0.90;0.40;;;16.10;99.90;;;;;;5036886;28;20159;-66
2023/09/21 12:23:26;;;;;;;1.92;0.52;;;16.30;99.90;;;;;;5036501;28;20029;-66
2023/09/21 12:25:52;;;;;;;1.70;0.30;;;16.40;99.90;;;;;;5036712;28;20030;-65
2023/09/21 12:28:19;;;;;;;0.95;0.32;;;16.40;99.90;;;;;;5036412;28;20454;-66
2023/09/21 12:30:47;;;;;;;0.93;0.40;;;16.40;99.90;;;;;;5036631;28;20067;-65
2023/09/21 12:33:15;;;;;;;1.30;0.40;;;16.40;99.90;;;;;;5036425;28;20048;-65
2023/09/21 12:35:41;;;;;;;1.73;0.68;;;16.40;99.90;;;;;;5036524;28;20021;-66
2023/09/21 12:38:07;;;;;;;0.70;0.30;;;16.20;99.90;;;;;;5036653;28;20103;-65
2023/09/21 12:40:32;;;;;;;0.60;0.30;;;16.20;99.90;;;;;;5036494;28;20112;-65
2023/09/21 12:42:58;;;;;;;0.50;0.30;;;16.10;99.90;;;;;;5039577;28;20056;-65
2023/09/21 12:45:24;;;;;;;1.75;0.30;;;16.10;99.90;;;;;;5040081;28;20497;-65
2023/09/21 12:47:50;;;;;;;0.65;0.30;;;16.20;99.90;;;;;;5039719;28;20028;-65
2023/09/21 12:50:17;;;;;;;1.00;0.30;;;16.10;99.90;;;;;;5039978;28;20022;-65
2023/09/21 12:52:43;;;;;;;0.40;0.30;;;16.10;99.90;;;;;;5039479;28;20029;-65